AirNav   TITAN Aviation Fuels
 
 982 users online  

2R6 Bunkie Municipal Airport
Bunkie, Louisiana, USA

GOING TO BUNKIE?


FAA INFORMATION EFFECTIVE 15 JULY 2021

Location

FAA Identifier: 2R6
Lat/Long: 30-57-24.2900N 092-14-02.7590W
30-57.404833N 092-14.045983W
30.9567472,-92.2340997
(estimated)
Elevation: 62 ft. / 18.9 m (surveyed)
Variation: 01E (2010)
From city: 2 miles S of BUNKIE, LA
Time zone: UTC -5 (UTC -6 during Standard Time)
Zip code: 71322

Airport Operations

Airport use: Open to the public
Activation date: 03/1950
Control tower: no
ARTCC: HOUSTON CENTER
FSS: DE RIDDER FLIGHT SERVICE STATION
NOTAMs facility: DRI (NOTAM-D service available)
Attendance: UNATNDD
Wind indicator: lighted
Segmented circle: no
Lights: ACTVT REIL RWY 18 & 36; MIRL RWY 18/36 - CTAF. MIRL RWY 18/36 PRESET LOW INTST DUSK-DAWN; INCR INTST - CTAF.
Beacon: white-green (lighted land airport)
Operates sunset to sunrise.

Airport Communications

CTAF: 122.9
POLK APPROACH: 125.4
POLK DEPARTURE: 125.4

Nearby radio navigation aids

VOR radial/distance  VOR name  Freq  Var
AEXr140/22.6ALEXANDRIA VORTAC116.1003E

 
NDB name  Hdg/Dist  Freq  Var  ID
DURALDE023/26.226302EECY . -.-. -.--

Airport Services

Fuel available: 100LL
Parking: hangars and tiedowns
Airframe service: NONE
Powerplant service: NONE
Bottled oxygen: NONE
Bulk oxygen: NONE

Runway Information

Runway 18/36

Dimensions: 3005 x 75 ft. / 916 x 23 m
Surface: asphalt, in good condition
Weight bearing capacity: 
Single wheel: 8.0
Runway edge lights: medium intensity
RUNWAY 18  RUNWAY 36
Latitude: 30-57.652300N30-57.156633N
Longitude: 092-14.045783W092-14.044583W
Elevation: 59.0 ft.59.0 ft.
Traffic pattern: leftleft
Runway heading: 179 magnetic, 180 true359 magnetic, 360 true
Markings: nonprecision, in fair conditionnonprecision, in fair condition
Visual slope indicator: 2-light PAPI on left (3.00 degrees glide path)2-light PAPI on left (3.25 degrees glide path)
Runway end identifier lights: yesyes
Touchdown point: yes, no lightsyes, no lights
Obstructions: none97 ft. trees, 2752 ft. from runway, 397 ft. left of centerline, 26:1 slope to clear

Airport Ownership and Management from official FAA records

Ownership: Publicly-owned
Owner: TOWN OF BUNKIE
PO BOX 630
BUNKIE, LA 71322
Phone 318-346-7663
Manager: FRED VOLLMAN
PO BOX 220
BUNKIE, LA 71322
Phone (318) 264-2922

Airport Operational Statistics

Aircraft based on the field: 13
Single engine airplanes: 10
Multi engine airplanes: 1
Ultralights: 2
    
Aircraft operations: avg 125/week *
69% local general aviation
31% transient general aviation
* for 12-month period ending 08 August 2019

Additional Remarks

100LL FUEL AVBL BY APPT CALL 318-346-2371.
FOR CD CTC POLK APCH AT 337-531-2352.

Instrument Procedures

NOTE: All procedures below are presented as PDF files. If you need a reader for these files, you should download the free Adobe Reader.

NOT FOR NAVIGATION. Please procure official charts for flight.
FAA instrument procedures published for use from 15 July 2021 at 0901Z to 12 August 2021 at 0900z.

 
IAPs - Instrument Approach Procedures
RNAV (GPS) RWY 18   download (202KB)
RNAV (GPS) RWY 36   download (200KB)
VOR/DME-A   download (189KB)
NOTE: Special Take-Off Minimums/Departure Procedures apply   download (116KB)

Other nearby airports with instrument procedures:

KMKV - Marksville Municipal Airport (12 nm NE)
KOPL - St Landry Parish Airport-Ahart Field (25 nm S)
KACP - Allen Parish Airport (26 nm SW)
KESF - Esler Regional Airport (26 nm N)
KAEX - Alexandria International Airport (27 nm NW)
 
Loc | Ops | Rwys | IFR | FBO | Links
Com | Nav | Svcs | Stats | Notes
Area around 2R6 (Bunkie Municipal Airport)
 
Road maps at: MapQuest Bing Google
 
Aerial photo
WARNING: Photo may not be current or correct
Aerial photo of 2R6 (Bunkie Municipal Airport)
Photo taken 11-Sep-2010
looking north.

Do you have a better or more recent aerial photo of Bunkie Municipal Airport that you would like to share? If so, please send us your photo.

 
Sectional chart

 
Airport distance calculator
Flying to Bunkie Municipal Airport? Find the distance to fly.

From to 2R6

Sunrise and sunset
Times for 27-Jul-2021
 Local
(UTC-5)
 Zulu
(UTC)
Morning civil twilight05:5710:57
Sunrise06:2411:24
Sunset20:0701:07
Evening civil twilight20:3301:33

Current date and time
Zulu (UTC)  28-Jul-2021 01:28:47
Local (UTC-5)  27-Jul-2021 20:28:47
 
METAR
KOPL 
25nm S 
280115Z AUTO 24003KT 10SM SCT095 24/23 A3000 RMK AO2 LTG DSNT SE AND S T02430230
KACP 
26nm SW 
280115Z AUTO 00000KT 10SM CLR 25/23 A3000 RMK AO2 LTG DSNT SE AND S
KESF 
27nm N 
280053Z AUTO 00000KT 9SM CLR 25/23 A2999 RMK AO2 SLP153 T02500233
KAEX 
28nm NW 
280053Z 34003KT 7SM CLR 25/23 A2996 RMK AO2 SLP149 T02500233
KBKB 
35nm W 
280054Z AUTO 00000KT 6SM BR CLR 25/23 A2997 RMK AO2 RAE33 SLP172 P0001 T02500233
KPOE 
40nm W 
272358Z AUTO 25004KT 8SM CLR 25/24 A2997 RMK AO2 LTG DSNT N AND S-W SLP148 60078 T02450240 10346 20234 50008
KHZR 
41nm E 
280115Z AUTO 00000KT 7SM RA BKN005 BKN035 24/24 A3000 RMK AO2 LTG DSNT SW T02400240
KLFT 
47nm S 
280053Z VRB03KT 7SM VCTS RA FEW040 SCT060 BKN110 24/23 A2999 RMK AO2 LTG DSNT E-SW RAB2355E06B25 TSE43 SLP156 P0003 T02390228
K3R7 
48nm SW 
280115Z AUTO 00000KT 10SM CLR 24/24 A3000 RMK AO2 LTG DSNT SE T02440244
TAF
KAEX 
28nm NW 
271858Z 2719/2818 VRB05KT P6SM VCTS SCT040CB SCT200 TEMPO 2719/2722 VRB15G25KT 3SM TSRA OVC030CB FM272200 VRB05KT P6SM VCTS SCT040CB BKN070 FM280300 VRB03KT P6SM FEW035
NOTAMs
Click for the latest NOTAMs
NOTAMs are issued by the DoD/FAA and will open in a separate window not controlled by AirNav.

 

 
 

Would you like to see your business listed on this page?

 If your business provides an interesting product or service to pilots, flight crews, aircraft, or users of the Bunkie Municipal Airport, you should consider listing it here.  To start the listing process, click on the button below
 
Add a business
 

Other Pages about Bunkie Municipal Airport

Update a link
 
Copyright © AirNav, LLC. All rights reserved. Privacy Policy  Contact